createdAt,value
2018-10-07T00:01:18.484Z,7.30
2018-10-07T00:03:47.077Z,7.23
2018-10-07T00:06:15.887Z,7.73
2018-10-07T00:08:44.431Z,7.67
2018-10-07T00:11:13.280Z,8.27
2018-10-07T00:13:42.189Z,7.33
2018-10-07T00:16:10.850Z,7.80
2018-10-07T00:18:39.644Z,7.53
2018-10-07T00:21:08.228Z,8.40
2018-10-07T00:23:37.139Z,7.53
2018-10-07T00:26:06.371Z,7.50
2018-10-07T00:28:34.939Z,7.50
2018-10-07T00:31:03.989Z,7.37
2018-10-07T00:33:32.669Z,7.87
2018-10-07T00:36:01.417Z,7.80
2018-10-07T00:38:30.304Z,7.67
2018-10-07T00:40:59.036Z,7.57
2018-10-07T00:43:27.527Z,7.30
2018-10-07T00:45:56.120Z,6.50
2018-10-07T00:48:24.815Z,8.07
2018-10-07T00:50:53.564Z,7.00
2018-10-07T00:53:22.242Z,7.10
2018-10-07T00:55:50.947Z,6.97
2018-10-07T00:58:20.207Z,7.20
2018-10-07T01:00:49.130Z,7.57
2018-10-07T01:03:18.070Z,6.83
2018-10-07T01:05:46.706Z,6.70
2018-10-07T01:08:15.276Z,6.83
2018-10-07T01:10:43.812Z,6.37
2018-10-07T01:13:12.543Z,6.90
2018-10-07T01:15:41.308Z,6.47
2018-10-07T01:18:10.053Z,6.83
2018-10-07T01:20:38.722Z,6.40
2018-10-07T01:23:07.789Z,6.80
2018-10-07T01:25:36.568Z,6.40
2018-10-07T01:28:05.486Z,6.93
2018-10-07T01:30:34.022Z,6.70
2018-10-07T01:33:02.596Z,6.77
2018-10-07T01:35:31.134Z,6.77
2018-10-07T01:37:59.749Z,6.30
2018-10-07T01:40:28.309Z,6.87
2018-10-07T01:42:57.157Z,7.10
2018-10-07T01:45:25.943Z,7.40
2018-10-07T01:47:54.733Z,6.57
2018-10-07T01:50:23.352Z,6.80
2018-10-07T01:52:51.863Z,6.53
2018-10-07T01:55:20.388Z,6.90
2018-10-07T01:57:49.157Z,6.40
2018-10-07T02:00:17.779Z,6.70
2018-10-07T02:02:46.576Z,7.17
2018-10-07T02:05:15.379Z,6.83
2018-10-07T02:07:44.156Z,6.47
2018-10-07T02:10:12.652Z,6.50
2018-10-07T02:12:41.491Z,6.70
2018-10-07T02:15:10.029Z,6.63
2018-10-07T02:17:39.226Z,6.97
2018-10-07T02:20:07.928Z,6.80
2018-10-07T02:22:36.607Z,6.73
2018-10-07T02:25:05.165Z,6.60
2018-10-07T02:27:33.713Z,7.20
2018-10-07T02:30:02.520Z,6.63
2018-10-07T02:32:31.447Z,6.90
2018-10-07T02:35:00.088Z,6.90
2018-10-07T02:37:29.099Z,6.20
2018-10-07T02:39:57.648Z,6.40
2018-10-07T02:42:26.171Z,5.90
2018-10-07T02:44:54.717Z,6.23
2018-10-07T02:47:23.655Z,5.77
2018-10-07T02:49:52.183Z,7.20
2018-10-07T02:52:26.363Z,7.10
2018-10-07T02:54:55.448Z,6.80
2018-10-07T02:57:24.816Z,6.13
2018-10-07T02:59:53.332Z,6.80
2018-10-07T03:02:21.837Z,5.87
2018-10-07T03:04:50.409Z,6.00
2018-10-07T03:07:18.972Z,6.70
2018-10-07T03:09:47.724Z,5.70
2018-10-07T03:12:16.549Z,6.43
2018-10-07T03:14:45.064Z,6.53
2018-10-07T03:17:13.577Z,6.10
2018-10-07T03:19:42.142Z,5.73
2018-10-07T03:22:11.070Z,5.90
2018-10-07T03:24:39.670Z,6.47
2018-10-07T03:27:08.185Z,6.50
2018-10-07T03:29:36.968Z,6.20
2018-10-07T03:32:05.687Z,7.10
2018-10-07T03:34:34.224Z,6.97
2018-10-07T03:37:02.731Z,7.40
2018-10-07T03:39:31.314Z,7.90
2018-10-07T03:41:59.840Z,7.03
2018-10-07T03:44:28.447Z,7.57
2018-10-07T03:46:57.122Z,7.97
2018-10-07T03:49:25.618Z,8.27
2018-10-07T03:51:54.433Z,12.90
2018-10-07T03:54:23.057Z,15.57
2018-10-07T03:56:51.783Z,25.53
2018-10-07T03:59:20.266Z,40.90
2018-10-07T04:01:48.861Z,84.67
2018-10-07T04:04:17.417Z,77.63
2018-10-07T04:06:45.966Z,42.90
2018-10-07T04:09:14.809Z,75.97
2018-10-07T04:11:44.183Z,86.27
2018-10-07T04:14:13.675Z,91.63
2018-10-07T04:16:42.162Z,89.30
2018-10-07T04:19:11.460Z,87.07
2018-10-07T04:22:00.574Z,79.73
2018-10-07T04:24:30.806Z,75.80
2018-10-07T04:26:59.422Z,77.83
2018-10-07T04:29:28.336Z,79.60
2018-10-07T04:31:57.459Z,77.97
2018-10-07T04:34:26.176Z,76.40
2018-10-07T04:36:54.841Z,68.03
2018-10-07T04:39:23.466Z,73.00
2018-10-07T04:41:51.972Z,68.93
2018-10-07T04:44:20.644Z,69.73
2018-10-07T04:46:49.428Z,70.67
2018-10-07T04:49:18.018Z,69.37
2018-10-07T04:51:46.600Z,69.50
2018-10-07T04:54:15.180Z,69.73
2018-10-07T04:56:43.715Z,68.13
2018-10-07T04:59:12.244Z,67.13
2018-10-07T05:01:40.854Z,65.97
2018-10-07T05:04:09.516Z,65.17
2018-10-07T05:06:38.061Z,55.73
2018-10-07T05:09:09.796Z,52.77
2018-10-07T05:11:39.543Z,50.70
2018-10-07T05:14:09.313Z,40.17
2018-10-07T05:16:39.775Z,35.33
2018-10-07T05:19:08.624Z,32.37
2018-10-07T05:21:37.212Z,22.03
2018-10-07T05:24:06.192Z,15.17
2018-10-07T05:26:34.696Z,10.87
2018-10-07T05:29:03.255Z,7.43
2018-10-07T05:31:32.080Z,5.83
2018-10-07T05:34:00.746Z,4.67
2018-10-07T05:36:29.301Z,4.60
2018-10-07T05:38:57.874Z,3.70
2018-10-07T05:41:26.394Z,3.73
2018-10-07T05:43:55.002Z,3.53
2018-10-07T05:46:23.557Z,4.03
2018-10-07T05:48:52.265Z,3.50
2018-10-07T05:51:20.852Z,4.33
2018-10-07T05:53:49.651Z,4.60
2018-10-07T05:56:18.305Z,4.50
2018-10-07T05:58:47.449Z,5.27
2018-10-07T06:01:37.278Z,4.93
2018-10-07T06:04:41.437Z,6.23
2018-10-07T06:07:10.322Z,7.17
2018-10-07T06:09:39.246Z,7.80
2018-10-07T06:12:07.895Z,8.63
2018-10-07T06:14:47.763Z,8.87
2018-10-07T06:17:16.290Z,10.40
2018-10-07T06:19:45.265Z,10.17
2018-10-07T06:22:13.805Z,9.77
2018-10-07T06:24:42.433Z,9.63
2018-10-07T06:27:11.167Z,9.83
2018-10-07T06:29:40.005Z,9.93
2018-10-07T06:32:08.557Z,10.00
2018-10-07T06:34:37.287Z,8.87
2018-10-07T06:37:06.300Z,8.67
2018-10-07T06:39:34.845Z,8.43
2018-10-07T06:42:03.468Z,8.07
2018-10-07T06:44:31.991Z,7.80
2018-10-07T06:47:00.534Z,7.90
2018-10-07T06:49:29.067Z,7.40
2018-10-07T06:51:57.765Z,7.53
2018-10-07T06:54:26.515Z,7.00
2018-10-07T06:56:55.122Z,7.47
2018-10-07T06:59:23.787Z,7.87
2018-10-07T07:01:52.657Z,7.50
2018-10-07T07:04:21.272Z,7.20
2018-10-07T07:06:50.014Z,7.37
2018-10-07T07:09:18.520Z,6.93
2018-10-07T07:11:47.181Z,7.53
2018-10-07T07:14:15.959Z,7.73
2018-10-07T07:16:44.638Z,7.30
2018-10-07T07:19:13.611Z,7.80
2018-10-07T07:21:42.437Z,7.27
2018-10-07T07:24:10.981Z,7.47
2018-10-07T07:26:39.509Z,7.90
2018-10-07T07:29:08.173Z,8.00
2018-10-07T07:31:37.407Z,7.43
2018-10-07T07:34:06.108Z,7.73
2018-10-07T07:36:34.767Z,7.30
2018-10-07T07:39:04.945Z,8.13
2018-10-07T07:41:33.724Z,6.73
2018-10-07T07:44:02.461Z,7.90
2018-10-07T07:46:31.324Z,7.37
2018-10-07T07:49:00.179Z,7.17
2018-10-07T07:51:33.181Z,6.93
2018-10-07T07:54:01.983Z,7.33
2018-10-07T07:56:30.591Z,6.97
2018-10-07T07:58:59.398Z,7.80
2018-10-07T08:01:28.165Z,6.47
2018-10-07T08:03:56.921Z,7.67
2018-10-07T08:06:25.590Z,6.63
2018-10-07T08:08:54.521Z,7.00
2018-10-07T08:11:23.352Z,7.70
2018-10-07T08:13:52.167Z,7.53
2018-10-07T08:16:20.761Z,7.57
2018-10-07T08:18:49.338Z,8.27
2018-10-07T08:21:18.016Z,8.03
2018-10-07T08:23:46.796Z,8.10
2018-10-07T08:26:15.776Z,7.60
2018-10-07T08:28:44.716Z,8.20
2018-10-07T08:31:13.523Z,7.90
2018-10-07T08:33:42.559Z,7.63
2018-10-07T08:36:11.698Z,7.93
2018-10-07T08:38:40.577Z,7.57
2018-10-07T08:41:09.633Z,6.50
2018-10-07T08:43:38.498Z,6.57
2018-10-07T08:46:07.191Z,6.40
2018-10-07T08:48:35.848Z,5.37
2018-10-07T08:51:04.544Z,5.83
2018-10-07T08:53:33.404Z,5.30
2018-10-07T08:56:02.344Z,5.50
2018-10-07T08:58:31.072Z,5.13
2018-10-07T09:00:59.862Z,4.33
2018-10-07T09:03:28.721Z,4.67
2018-10-07T09:05:57.420Z,4.20
2018-10-07T09:08:26.221Z,4.07
2018-10-07T09:10:55.065Z,3.80
2018-10-07T09:13:23.860Z,4.20
2018-10-07T09:15:52.789Z,4.20
2018-10-07T09:18:22.268Z,3.97
2018-10-07T09:20:51.308Z,4.13
2018-10-07T09:23:20.355Z,4.03
2018-10-07T09:25:48.905Z,3.57
2018-10-07T09:28:17.920Z,3.50
2018-10-07T09:30:46.974Z,3.43
2018-10-07T09:33:15.814Z,3.10
2018-10-07T09:35:44.603Z,3.33
2018-10-07T09:38:13.387Z,3.00
2018-10-07T09:40:42.248Z,2.83
2018-10-07T09:43:10.816Z,2.57
2018-10-07T09:45:39.755Z,2.57
2018-10-07T09:48:08.797Z,2.40
2018-10-07T09:50:37.909Z,2.30
2018-10-07T09:53:07.033Z,2.10
2018-10-07T09:55:36.179Z,2.33
2018-10-07T09:58:04.881Z,2.33
2018-10-07T10:00:39.776Z,2.30
2018-10-07T10:03:09.622Z,2.03
2018-10-07T10:05:38.296Z,2.10
2018-10-07T10:08:07.255Z,1.93
2018-10-07T10:10:36.270Z,1.60
2018-10-07T10:13:05.317Z,1.40
2018-10-07T10:15:34.156Z,2.13
2018-10-07T10:18:06.379Z,2.10
2018-10-07T10:20:44.847Z,2.77
2018-10-07T10:23:20.979Z,2.30
2018-10-07T10:26:39.405Z,2.57
2018-10-07T10:29:28.698Z,2.33
2018-10-07T10:32:34.689Z,3.20
2018-10-07T10:35:15.331Z,1.83
2018-10-07T10:39:56.370Z,2.30
2018-10-07T10:42:44.940Z,1.70
2018-10-07T10:45:21.889Z,1.60
2018-10-07T10:47:52.739Z,1.30
2018-10-07T10:52:37.148Z,1.60
2018-10-07T10:55:12.444Z,1.17
2018-10-07T10:57:44.964Z,1.30
2018-10-07T11:00:19.721Z,1.20
2018-10-07T11:03:04.323Z,1.03
2018-10-07T11:05:55.739Z,1.10
2018-10-07T11:08:36.130Z,1.20
2018-10-07T11:11:12.099Z,1.30
2018-10-07T11:13:58.590Z,1.40
2018-10-07T11:16:38.534Z,1.23
2018-10-07T11:19:20.420Z,1.00
2018-10-07T11:21:59.367Z,1.20
2018-10-07T11:26:06.230Z,1.00
2018-10-07T11:28:41.595Z,1.10
2018-10-07T11:32:25.496Z,1.10
2018-10-07T11:35:05.332Z,0.80
2018-10-07T11:37:45.750Z,0.80
2018-10-07T11:40:25.482Z,0.80
2018-10-07T11:44:20.133Z,0.70
2018-10-07T11:46:59.363Z,0.90
2018-10-07T11:49:42.168Z,0.70
2018-10-07T11:52:29.905Z,0.80
2018-10-07T11:54:58.947Z,0.90
2018-10-07T11:57:28.475Z,0.90
2018-10-07T11:59:57.941Z,1.00
2018-10-07T12:02:27.115Z,0.80
2018-10-07T12:04:56.167Z,1.02
2018-10-07T12:07:26.181Z,0.82
2018-10-07T12:09:55.177Z,0.60
2018-10-07T12:12:24.059Z,0.62
2018-10-07T12:14:53.074Z,1.02
2018-10-07T12:17:21.682Z,0.72
2018-10-07T12:19:50.469Z,0.88
2018-10-07T12:22:19.416Z,0.80
2018-10-07T12:24:48.178Z,0.72
2018-10-07T12:27:16.948Z,0.70
2018-10-07T12:29:45.629Z,0.68
2018-10-07T12:32:14.578Z,0.93
2018-10-07T12:34:43.687Z,0.80
2018-10-07T12:37:12.537Z,0.70
2018-10-07T12:39:41.398Z,0.90
2018-10-07T12:42:10.448Z,0.90
2018-10-07T12:44:39.361Z,0.70
2018-10-07T12:47:08.329Z,0.70
2018-10-07T12:49:37.221Z,0.72
2018-10-07T12:52:06.177Z,0.78
2018-10-07T12:54:34.973Z,0.80
2018-10-07T12:57:03.878Z,0.60
2018-10-07T12:59:32.567Z,0.78
2018-10-07T13:02:01.512Z,0.70
2018-10-07T13:04:30.354Z,0.70
2018-10-07T13:06:59.231Z,0.50
2018-10-07T13:09:28.093Z,0.70
2018-10-07T13:11:57.223Z,0.70
2018-10-07T13:14:25.989Z,0.65
2018-10-07T13:16:55.069Z,0.47
2018-10-07T13:19:24.061Z,0.60
2018-10-07T13:21:53.082Z,0.70
2018-10-07T13:24:21.976Z,0.60
2018-10-07T13:26:50.719Z,0.47
2018-10-07T13:29:19.525Z,0.40
2018-10-07T13:31:48.506Z,0.57
2018-10-07T13:34:17.474Z,0.60
2018-10-07T13:36:46.049Z,0.60
2018-10-07T13:39:14.623Z,0.60
2018-10-07T13:41:43.392Z,0.70
2018-10-07T13:44:12.160Z,0.40
2018-10-07T13:46:41.377Z,0.60
2018-10-07T13:49:10.215Z,0.50
2018-10-07T13:51:38.860Z,0.50
2018-10-07T13:54:07.947Z,0.40
2018-10-07T13:56:36.675Z,0.60
2018-10-07T13:59:05.667Z,0.50
2018-10-07T14:01:34.348Z,0.57
2018-10-07T14:04:03.119Z,0.45
2018-10-07T14:06:32.056Z,0.70
2018-10-07T14:09:00.852Z,0.62
2018-10-07T14:11:29.519Z,0.40
2018-10-07T14:13:58.259Z,0.47
2018-10-07T14:16:27.336Z,0.45
2018-10-07T14:18:56.213Z,0.50
2018-10-07T14:21:25.023Z,0.50
2018-10-07T14:23:54.016Z,0.33
2018-10-07T14:26:22.825Z,0.55
2018-10-07T14:28:51.466Z,0.53
2018-10-07T14:31:20.254Z,0.50
2018-10-07T14:33:48.861Z,0.60
2018-10-07T14:36:17.912Z,0.50
2018-10-07T14:38:46.852Z,0.55
2018-10-07T14:41:16.446Z,0.50
2018-10-07T14:43:45.406Z,0.50
2018-10-07T14:46:14.116Z,0.50
2018-10-07T14:48:43.163Z,0.57
2018-10-07T14:51:12.539Z,0.50
2018-10-07T14:53:41.628Z,0.47
2018-10-07T14:56:10.819Z,0.60
2018-10-07T14:58:40.015Z,0.60
2018-10-07T15:01:09.091Z,0.53
2018-10-07T15:03:38.022Z,0.60
2018-10-07T15:06:06.790Z,1.10
2018-10-07T15:08:36.156Z,0.53
2018-10-07T15:11:05.175Z,0.70
2018-10-07T15:13:34.126Z,0.70
2018-10-07T15:16:03.520Z,0.50
2018-10-07T15:18:32.689Z,0.50
2018-10-07T15:21:01.706Z,0.40
2018-10-07T15:23:30.910Z,0.40
2018-10-07T15:25:59.899Z,0.40
2018-10-07T15:28:28.941Z,0.60
2018-10-07T15:30:58.164Z,0.60
2018-10-07T15:33:27.167Z,0.60
2018-10-07T15:35:56.483Z,0.70
2018-10-07T15:38:25.357Z,0.70
2018-10-07T15:40:54.399Z,0.60
2018-10-07T15:43:23.152Z,0.67
2018-10-07T15:45:52.037Z,0.60
2018-10-07T15:48:21.335Z,0.70
2018-10-07T15:50:50.078Z,0.50
2018-10-07T15:53:18.989Z,0.50
2018-10-07T15:55:47.824Z,0.60
2018-10-07T15:58:16.539Z,0.60
2018-10-07T16:00:45.456Z,0.60
2018-10-07T16:03:14.503Z,0.50
2018-10-07T16:05:43.475Z,0.60
2018-10-07T16:08:12.791Z,0.60
2018-10-07T16:10:41.632Z,0.43
2018-10-07T16:13:10.501Z,0.43
2018-10-07T16:15:39.221Z,0.60
2018-10-07T16:18:07.918Z,0.60
2018-10-07T16:20:36.704Z,0.40
2018-10-07T16:23:05.444Z,0.50
2018-10-07T16:25:34.261Z,0.50
2018-10-07T16:28:03.212Z,0.60
2018-10-07T16:30:32.175Z,0.60
2018-10-07T16:33:01.098Z,0.50
2018-10-07T16:35:30.004Z,0.47
2018-10-07T16:37:59.108Z,0.40
2018-10-07T16:40:28.354Z,0.50
2018-10-07T16:42:57.269Z,0.50
2018-10-07T16:45:26.329Z,0.50
2018-10-07T16:47:55.371Z,0.40
2018-10-07T16:50:24.004Z,0.70
2018-10-07T16:52:53.011Z,0.70
2018-10-07T16:55:21.969Z,0.60
2018-10-07T16:57:51.053Z,0.57
2018-10-07T17:00:19.774Z,0.50
2018-10-07T17:02:48.733Z,0.73
2018-10-07T17:05:17.801Z,0.40
2018-10-07T17:07:46.875Z,0.50
2018-10-07T17:10:16.081Z,0.40
2018-10-07T17:12:45.301Z,0.43
2018-10-07T17:15:14.298Z,0.40
2018-10-07T17:17:43.143Z,0.60
2018-10-07T17:20:12.018Z,0.50
2018-10-07T17:22:41.301Z,0.60
2018-10-07T17:25:10.419Z,0.70
2018-10-07T17:27:39.597Z,0.60
2018-10-07T17:30:08.824Z,0.50
2018-10-07T17:32:37.997Z,0.90
2018-10-07T17:35:07.047Z,0.80
2018-10-07T17:37:36.008Z,0.80
2018-10-07T17:40:05.186Z,0.83
2018-10-07T17:42:34.095Z,4.07
2018-10-07T17:45:03.301Z,0.77
2018-10-07T17:47:32.160Z,1.20
2018-10-07T17:50:01.866Z,0.93
2018-10-07T17:52:31.233Z,1.30
2018-10-07T17:55:00.366Z,1.60
2018-10-07T17:57:29.415Z,1.20
2018-10-07T17:59:58.476Z,1.30
2018-10-07T18:02:27.363Z,1.30
2018-10-07T18:04:56.547Z,1.63
2018-10-07T18:07:25.743Z,1.60
2018-10-07T18:09:54.678Z,1.50
2018-10-07T18:12:23.742Z,1.87
2018-10-07T18:14:52.911Z,2.00
2018-10-07T18:17:22.036Z,2.07
2018-10-07T18:19:50.863Z,1.60
2018-10-07T18:22:19.572Z,1.97
2018-10-07T18:24:48.805Z,2.13
2018-10-07T18:27:17.656Z,2.40
2018-10-07T18:29:46.567Z,2.60
2018-10-07T18:32:15.783Z,2.73
2018-10-07T18:34:44.831Z,2.80
2018-10-07T18:37:13.840Z,2.07
2018-10-07T18:39:42.976Z,2.63
2018-10-07T18:42:12.248Z,2.30
2018-10-07T18:44:41.536Z,2.87
2018-10-07T18:47:10.901Z,3.20
2018-10-07T18:49:40.050Z,2.90
2018-10-07T18:52:09.192Z,2.67
2018-10-07T18:54:38.307Z,2.47
2018-10-07T18:57:08.040Z,2.67
2018-10-07T18:59:37.372Z,2.53
2018-10-07T19:02:06.447Z,2.77
2018-10-07T19:04:35.418Z,2.83
2018-10-07T19:07:04.667Z,2.33
2018-10-07T19:09:33.647Z,2.47
2018-10-07T19:12:02.564Z,2.37
2018-10-07T19:14:31.509Z,2.47
2018-10-07T19:17:00.752Z,2.30
2018-10-07T19:19:29.984Z,2.50
2018-10-07T19:21:58.795Z,2.27
2018-10-07T19:24:27.884Z,1.90
2018-10-07T19:26:56.586Z,2.37
2018-10-07T19:29:25.445Z,2.07
2018-10-07T19:31:54.761Z,1.90
2018-10-07T19:34:23.850Z,1.90
2018-10-07T19:36:53.036Z,2.20
2018-10-07T19:39:21.830Z,2.00
2018-10-07T19:41:50.798Z,2.07
2018-10-07T19:44:19.883Z,2.23
2018-10-07T19:46:49.100Z,1.70
2018-10-07T19:49:18.146Z,1.80
2018-10-07T19:51:46.907Z,2.23
2018-10-07T19:54:16.227Z,2.37
2018-10-07T19:56:45.434Z,2.37
2018-10-07T19:59:14.298Z,2.20
2018-10-07T20:01:43.290Z,2.50
2018-10-07T20:04:12.468Z,2.13
2018-10-07T20:06:41.806Z,2.10
2018-10-07T20:09:11.817Z,2.07
2018-10-07T20:11:41.318Z,2.00
2018-10-07T20:14:10.189Z,2.13
2018-10-07T20:16:39.297Z,2.27
2018-10-07T20:19:08.489Z,2.30
2018-10-07T20:21:37.858Z,1.97
2018-10-07T20:24:06.800Z,2.00
2018-10-07T20:26:36.162Z,1.70
2018-10-07T20:29:05.170Z,2.40
2018-10-07T20:31:34.221Z,2.33
2018-10-07T20:34:03.054Z,2.80
2018-10-07T20:36:32.255Z,2.57
2018-10-07T20:39:01.224Z,2.53
2018-10-07T20:41:30.198Z,2.07
2018-10-07T20:43:59.239Z,2.20
2018-10-07T20:46:27.798Z,1.90
2018-10-07T20:48:56.414Z,1.80
2018-10-07T20:51:25.179Z,1.50
2018-10-07T20:53:53.763Z,2.07
2018-10-07T20:56:22.537Z,2.00
2018-10-07T20:58:51.380Z,2.13
2018-10-07T21:01:20.037Z,2.10
2018-10-07T21:03:49.152Z,1.90
2018-10-07T21:06:18.058Z,1.80
2018-10-07T21:08:46.773Z,1.87
2018-10-07T21:11:15.361Z,2.30
2018-10-07T21:13:43.960Z,1.97
2018-10-07T21:16:13.369Z,1.73
2018-10-07T21:18:42.113Z,2.00
2018-10-07T21:21:10.706Z,2.20
2018-10-07T21:23:39.662Z,2.20
2018-10-07T21:26:08.213Z,2.27
2018-10-07T21:28:36.820Z,2.20
2018-10-07T21:31:05.721Z,2.40
2018-10-07T21:33:34.273Z,2.37
2018-10-07T21:36:02.839Z,2.30
2018-10-07T21:38:31.617Z,2.40
2018-10-07T21:41:00.657Z,2.20
2018-10-07T21:43:29.494Z,2.23
2018-10-07T21:45:58.071Z,2.20
2018-10-07T21:48:26.635Z,2.10
2018-10-07T21:50:55.681Z,2.30
2018-10-07T21:53:24.246Z,2.20
2018-10-07T21:55:52.983Z,2.17
2018-10-07T21:58:21.848Z,2.03
2018-10-07T22:00:50.917Z,1.80
2018-10-07T22:03:19.756Z,2.23
2018-10-07T22:05:48.598Z,2.43
2018-10-07T22:08:17.331Z,2.23
2018-10-07T22:10:45.896Z,2.00
2018-10-07T22:13:14.517Z,2.30
2018-10-07T22:15:43.438Z,2.40
2018-10-07T22:18:12.370Z,2.20
2018-10-07T22:20:41.278Z,2.23
2018-10-07T22:23:09.885Z,2.67
2018-10-07T22:25:38.404Z,2.37
2018-10-07T22:28:06.950Z,2.60
2018-10-07T22:30:35.601Z,2.33
2018-10-07T22:33:04.149Z,2.13
2018-10-07T22:35:32.647Z,2.30
2018-10-07T22:38:01.588Z,2.13
2018-10-07T22:40:30.459Z,2.07
2018-10-07T22:42:59.011Z,2.33
2018-10-07T22:45:27.783Z,2.43
2018-10-07T22:47:56.317Z,1.90
2018-10-07T22:50:24.922Z,3.67
2018-10-07T22:52:53.480Z,2.20
2018-10-07T22:55:22.139Z,2.27
2018-10-07T22:57:50.772Z,2.20
2018-10-07T23:00:19.534Z,1.80
2018-10-07T23:02:48.209Z,2.60
2018-10-07T23:05:17.106Z,2.93
2018-10-07T23:07:45.846Z,2.30
2018-10-07T23:10:14.449Z,2.40
2018-10-07T23:12:42.982Z,3.20
2018-10-07T23:15:11.528Z,2.17
2018-10-07T23:17:40.043Z,2.67
2018-10-07T23:20:08.764Z,3.07
2018-10-07T23:22:37.467Z,3.17
2018-10-07T23:25:06.186Z,1.73
2018-10-07T23:27:34.932Z,2.00
2018-10-07T23:30:03.560Z,3.30
2018-10-07T23:32:32.106Z,2.57
2018-10-07T23:35:00.664Z,2.83
2018-10-07T23:37:29.495Z,3.30
2018-10-07T23:39:58.925Z,2.80
2018-10-07T23:42:27.471Z,3.10
2018-10-07T23:44:56.020Z,4.00
2018-10-07T23:47:24.559Z,2.43
2018-10-07T23:49:53.139Z,3.50
2018-10-07T23:52:22.094Z,2.70
2018-10-07T23:54:51.145Z,2.90
2018-10-07T23:57:19.797Z,2.77
2018-10-07T23:59:48.731Z,2.00
